55.3°F
Current conditions from King Hill
Updated every 5 minutes
 
  Friday August 1, 2014

Station Historical Data
Daily Summary for August 24, 2011 Units:  Both    English   Metric
« Previous Day
Next Day »
Daily Weekly Monthly Yearly Custom
  High: Low: Average:
Temperature: 77.8 °F /  25.4 °C 59.0 °F /  15 °C 67.6 °F /  19.8 °C
Dew Point: 61.0 °F /  16.1 °C 50.2 °F /  10.1 °C 55.4 °F /  13 °C
Humidity: 80% 48% 66%
Wind Speed: 11.0mph /  17.7km/h - 3.8mph /  6.1km/h
Wind Gust: 26.0mph /  41.8km/h - -
Wind- - SSW
Pressure: 29.96 in /  1014.4 hPa 29.73 in /  1006.7 hPa -
Precipitation: 0.00 in /  0 mm    
Historical Graphs
 
 
Tabular Data for August 24, 2011
Time Temperature Dew Point Pressure Wind Wind Speed Wind Gust Humidity Daily Rainfall
00:04 60.8 °F /  16 °C 53.9 °F /  12.2 °C 29.95in /  1014.1hPa Calm   4.0mph /  6.4km/h 78% 0.00in /  0mm
00:09 60.6 °F /  15.9 °C 53.7 °F /  12.1 °C 29.94in /  1013.8hPa Calm   5.0mph /  8km/h 78% 0.00in /  0mm
00:14 60.4 °F /  15.8 °C 53.9 °F /  12.2 °C 29.95in /  1014.1hPa Calm   5.0mph /  8km/h 79% 0.00in /  0mm
00:20 60.1 °F /  15.6 °C 53.6 °F /  12 °C 29.95in /  1014.1hPa Calm   4.0mph /  6.4km/h 79% 0.00in /  0mm
00:24 59.9 °F /  15.5 °C 53.4 °F /  11.9 °C 29.94in /  1013.8hPa Calm   4.0mph /  6.4km/h 79% 0.00in /  0mm
00:29 59.7 °F /  15.4 °C 53.5 °F /  11.9 °C 29.95in /  1014.1hPa Calm   4.0mph /  6.4km/h 80% 0.00in /  0mm
00:34 59.6 °F /  15.3 °C 53.4 °F /  11.9 °C 29.95in /  1014.1hPa SW 1.0mph /  1.6km/h 4.0mph /  6.4km/h 80% 0.00in /  0mm
00:39 59.6 °F /  15.3 °C 53.4 °F /  11.9 °C 29.95in /  1014.1hPa SSW 1.0mph /  1.6km/h 6.0mph /  9.7km/h 80% 0.00in /  0mm
00:44 59.5 °F /  15.3 °C 53.3 °F /  11.8 °C 29.95in /  1014.1hPa Calm   6.0mph /  9.7km/h 80% 0.00in /  0mm
00:49 59.5 °F /  15.3 °C 53.3 °F /  11.8 °C 29.95in /  1014.1hPa SSW 1.0mph /  1.6km/h 5.0mph /  8km/h 80% 0.00in /  0mm
00:54 59.4 °F /  15.2 °C 53.2 °F /  11.8 °C 29.94in /  1013.8hPa SW 1.0mph /  1.6km/h 5.0mph /  8km/h 80% 0.00in /  0mm
00:59 59.3 °F /  15.2 °C 53.1 °F /  11.7 °C 29.94in /  1013.8hPa Calm   6.0mph /  9.7km/h 80% 0.00in /  0mm
01:04 59.2 °F /  15.1 °C 53.0 °F /  11.7 °C 29.94in /  1013.8hPa SSW 1.0mph /  1.6km/h 7.0mph /  11.3km/h 80% 0.00in /  0mm
01:09 59.1 °F /  15.1 °C 52.9 °F /  11.6 °C 29.94in /  1013.8hPa Calm   7.0mph /  11.3km/h 80% 0.00in /  0mm
01:14 59.0 °F /  15 °C 52.8 °F /  11.6 °C 29.94in /  1013.8hPa SSW 1.0mph /  1.6km/h 7.0mph /  11.3km/h 80% 0.00in /  0mm
01:19 59.1 °F /  15.1 °C 52.9 °F /  11.6 °C 29.94in /  1013.8hPa SW 2.0mph /  3.2km/h 7.0mph /  11.3km/h 80% 0.00in /  0mm
01:24 59.4 °F /  15.2 °C 53.2 °F /  11.8 °C 29.94in /  1013.8hPa SSW 1.0mph /  1.6km/h 7.0mph /  11.3km/h 80% 0.00in /  0mm
01:29 59.6 °F /  15.3 °C 53.1 °F /  11.7 °C 29.93in /  1013.4hPa SSW 1.0mph /  1.6km/h 7.0mph /  11.3km/h 79% 0.00in /  0mm
01:34 59.7 °F /  15.4 °C 53.2 °F /  11.8 °C 29.93in /  1013.4hPa SSW 1.0mph /  1.6km/h 6.0mph /  9.7km/h 79% 0.00in /  0mm
01:39 59.7 °F /  15.4 °C 53.2 °F /  11.8 °C 29.93in /  1013.4hPa SW 2.0mph /  3.2km/h 7.0mph /  11.3km/h 79% 0.00in /  0mm
01:44 59.7 °F /  15.4 °C 53.2 °F /  11.8 °C 29.93in /  1013.4hPa Calm   7.0mph /  11.3km/h 79% 0.00in /  0mm
01:49 59.6 °F /  15.3 °C 53.1 °F /  11.7 °C 29.93in /  1013.4hPa SSW 3.0mph /  4.8km/h 7.0mph /  11.3km/h 79% 0.00in /  0mm
01:54 59.6 °F /  15.3 °C 52.7 °F /  11.5 °C 29.93in /  1013.4hPa SSW 1.0mph /  1.6km/h 7.0mph /  11.3km/h 78% 0.00in /  0mm
01:59 59.6 °F /  15.3 °C 52.7 °F /  11.5 °C 29.93in /  1013.4hPa SSW 1.0mph /  1.6km/h 7.0mph /  11.3km/h 78% 0.00in /  0mm
02:04 59.5 °F /  15.3 °C 52.6 °F /  11.4 °C 29.93in /  1013.4hPa Calm   7.0mph /  11.3km/h 78% 0.00in /  0mm
02:09 59.6 °F /  15.3 °C 52.7 °F /  11.5 °C 29.93in /  1013.4hPa SSW 2.0mph /  3.2km/h 7.0mph /  11.3km/h 78% 0.00in /  0mm
02:14 59.8 °F /  15.4 °C 52.6 °F /  11.4 °C 29.93in /  1013.4hPa SSW 2.0mph /  3.2km/h 7.0mph /  11.3km/h 77% 0.00in /  0mm
02:19 59.9 °F /  15.5 °C 52.7 °F /  11.5 °C 29.93in /  1013.4hPa SSW 2.0mph /  3.2km/h 9.0mph /  14.5km/h 77% 0.00in /  0mm
02:25 60.0 °F /  15.6 °C 52.8 °F /  11.6 °C 29.93in /  1013.4hPa Calm   9.0mph /  14.5km/h 77% 0.00in /  0mm
02:29 60.0 °F /  15.6 °C 52.8 °F /  11.6 °C 29.93in /  1013.4hPa SSW 2.0mph /  3.2km/h 8.0mph /  12.9km/h 77% 0.00in /  0mm
02:34 60.0 °F /  15.6 °C 52.8 °F /  11.6 °C 29.92in /  1013.1hPa SSW 1.0mph /  1.6km/h 7.0mph /  11.3km/h 77% 0.00in /  0mm
02:39 60.0 °F /  15.6 °C 52.8 °F /  11.6 °C 29.93in /  1013.4hPa Calm   6.0mph /  9.7km/h 77% 0.00in /  0mm
02:44 59.7 °F /  15.4 °C 52.5 °F /  11.4 °C 29.93in /  1013.4hPa SW 1.0mph /  1.6km/h 6.0mph /  9.7km/h 77% 0.00in /  0mm
02:49 59.5 °F /  15.3 °C 52.3 °F /  11.3 °C 29.93in /  1013.4hPa SW 2.0mph /  3.2km/h 8.0mph /  12.9km/h 77% 0.00in /  0mm
02:54 59.3 °F /  15.2 °C 52.4 °F /  11.3 °C 29.93in /  1013.4hPa SSW 1.0mph /  1.6km/h 8.0mph /  12.9km/h 78% 0.00in /  0mm
02:59 59.1 °F /  15.1 °C 52.3 °F /  11.3 °C 29.93in /  1013.4hPa SW 2.0mph /  3.2km/h 6.0mph /  9.7km/h 78% 0.00in /  0mm
03:04 59.1 °F /  15.1 °C 52.3 °F /  11.3 °C 29.93in /  1013.4hPa SSW 1.0mph /  1.6km/h 7.0mph /  11.3km/h 78% 0.00in /  0mm
03:09 59.3 °F /  15.2 °C 52.4 °F /  11.3 °C 29.93in /  1013.4hPa SSW 2.0mph /  3.2km/h 8.0mph /  12.9km/h 78% 0.00in /  0mm
03:19 59.6 °F /  15.3 °C 52.4 °F /  11.3 °C 29.93in /  1013.4hPa SSW 2.0mph /  3.2km/h 7.0mph /  11.3km/h 77% 0.00in /  0mm
03:24 59.7 °F /  15.4 °C 52.1 °F /  11.2 °C 29.93in /  1013.4hPa SSW 4.0mph /  6.4km/h 8.0mph /  12.9km/h 76% 0.00in /  0mm
03:29 59.7 °F /  15.4 °C 52.1 °F /  11.2 °C 29.93in /  1013.4hPa SSW 3.0mph /  4.8km/h 11.0mph /  17.7km/h 76% 0.00in /  0mm
03:35 59.7 °F /  15.4 °C 52.1 °F /  11.2 °C 29.93in /  1013.4hPa SSW 1.0mph /  1.6km/h 11.0mph /  17.7km/h 76% 0.00in /  0mm
03:45 59.7 °F /  15.4 °C 52.1 °F /  11.2 °C 29.93in /  1013.4hPa SSW 2.0mph /  3.2km/h 9.0mph /  14.5km/h 76% 0.00in /  0mm
03:54 59.6 °F /  15.3 °C 52.0 °F /  11.1 °C 29.93in /  1013.4hPa SW 2.0mph /  3.2km/h 6.0mph /  9.7km/h 76% 0.00in /  0mm
03:59 59.5 °F /  15.3 °C 51.9 °F /  11.1 °C 29.93in /  1013.4hPa SW 1.0mph /  1.6km/h 7.0mph /  11.3km/h 76% 0.00in /  0mm
04:04 59.5 °F /  15.3 °C 51.6 °F /  10.9 °C 29.93in /  1013.4hPa SSW 3.0mph /  4.8km/h 8.0mph /  12.9km/h 75% 0.00in /  0mm
04:09 59.6 °F /  15.3 °C 51.7 °F /  10.9 °C 29.93in /  1013.4hPa SSW 1.0mph /  1.6km/h 8.0mph /  12.9km/h 75% 0.00in /  0mm
04:14 59.6 °F /  15.3 °C 51.7 °F /  10.9 °C 29.93in /  1013.4hPa SW 2.0mph /  3.2km/h 7.0mph /  11.3km/h 75% 0.00in /  0mm
04:19 59.4 °F /  15.2 °C 51.5 °F /  10.8 °C 29.93in /  1013.4hPa Calm   7.0mph /  11.3km/h 75% 0.00in /  0mm
04:24 59.1 °F /  15.1 °C 51.2 °F /  10.7 °C 29.93in /  1013.4hPa SSW 1.0mph /  1.6km/h 7.0mph /  11.3km/h 75% 0.00in /  0mm
04:29 59.0 °F /  15 °C 51.1 °F /  10.6 °C 29.93in /  1013.4hPa SSW 2.0mph /  3.2km/h 7.0mph /  11.3km/h 75% 0.00in /  0mm
04:34 59.0 °F /  15 °C 51.1 °F /  10.6 °C 29.93in /  1013.4hPa SSW 1.0mph /  1.6km/h 7.0mph /  11.3km/h 75% 0.00in /  0mm
04:39 59.0 °F /  15 °C 51.1 °F /  10.6 °C 29.93in /  1013.4hPa SW 1.0mph /  1.6km/h 7.0mph /  11.3km/h 75% 0.00in /  0mm
04:44 59.0 °F /  15 °C 50.7 °F /  10.4 °C 29.93in /  1013.4hPa SSW 2.0mph /  3.2km/h 6.0mph /  9.7km/h 74% 0.00in /  0mm
04:49 59.3 °F /  15.2 °C 51.0 °F /  10.6 °C 29.93in /  1013.4hPa SSW 2.0mph /  3.2km/h 8.0mph /  12.9km/h 74% 0.00in /  0mm
04:54 59.5 °F /  15.3 °C 50.8 °F /  10.4 °C 29.92in /  1013.1hPa SW 1.0mph /  1.6km/h 8.0mph /  12.9km/h 73% 0.00in /  0mm
04:59 59.6 °F /  15.3 °C 50.9 °F /  10.5 °C 29.93in /  1013.4hPa SSW 1.0mph /  1.6km/h 7.0mph /  11.3km/h 73% 0.00in /  0mm
05:04 59.7 °F /  15.4 °C 50.7 °F /  10.4 °C 29.93in /  1013.4hPa SW 2.0mph /  3.2km/h 7.0mph /  11.3km/h 72% 0.00in /  0mm
05:09 59.9 °F /  15.5 °C 50.9 °F /  10.5 °C 29.93in /  1013.4hPa SSW 2.0mph /  3.2km/h 7.0mph /  11.3km/h 72% 0.00in /  0mm
05:14 59.9 °F /  15.5 °C 50.5 °F /  10.3 °C 29.93in /  1013.4hPa SW 2.0mph /  3.2km/h 7.0mph /  11.3km/h 71% 0.00in /  0mm
05:19 60.0 °F /  15.6 °C 50.6 °F /  10.3 °C 29.93in /  1013.4hPa SSW 1.0mph /  1.6km/h 7.0mph /  11.3km/h 71% 0.00in /  0mm
05:24 60.0 °F /  15.6 °C 50.2 °F /  10.1 °C 29.93in /  1013.4hPa SSW 1.0mph /  1.6km/h 7.0mph /  11.3km/h 70% 0.00in /  0mm
05:29 60.0 °F /  15.6 °C 50.2 °F /  10.1 °C 29.93in /  1013.4hPa SSW 2.0mph /  3.2km/h 7.0mph /  11.3km/h 70% 0.00in /  0mm
05:34 60.4 °F /  15.8 °C 50.2 °F /  10.1 °C 29.93in /  1013.4hPa SSW 1.0mph /  1.6km/h 8.0mph /  12.9km/h 69% 0.00in /  0mm
05:39 60.7 °F /  15.9 °C 50.5 °F /  10.3 °C 29.93in /  1013.4hPa SSW 1.0mph /  1.6km/h 8.0mph /  12.9km/h 69% 0.00in /  0mm
05:44 61.0 °F /  16.1 °C 50.4 °F /  10.2 °C 29.94in /  1013.8hPa SW 2.0mph /  3.2km/h 8.0mph /  12.9km/h 68% 0.00in /  0mm
05:49 61.1 °F /  16.2 °C 50.5 °F /  10.3 °C 29.94in /  1013.8hPa SW 2.0mph /  3.2km/h 8.0mph /  12.9km/h 68% 0.00in /  0mm
05:54 60.9 °F /  16.1 °C 50.7 °F /  10.4 °C 29.94in /  1013.8hPa SW 1.0mph /  1.6km/h 7.0mph /  11.3km/h 69% 0.00in /  0mm
05:59 60.7 °F /  15.9 °C 50.5 °F /  10.3 °C 29.94in /  1013.8hPa SSW 2.0mph /  3.2km/h 9.0mph /  14.5km/h 69% 0.00in /  0mm
06:04 60.5 °F /  15.8 °C 50.7 °F /  10.4 °C 29.94in /  1013.8hPa SW 1.0mph /  1.6km/h 9.0mph /  14.5km/h 70% 0.00in /  0mm
06:09 60.3 °F /  15.7 °C 50.5 °F /  10.3 °C 29.95in /  1014.1hPa SW 2.0mph /  3.2km/h 8.0mph /  12.9km/h 70% 0.00in /  0mm
06:14 60.2 °F /  15.7 °C 50.4 °F /  10.2 °C 29.95in /  1014.1hPa SSW 2.0mph /  3.2km/h 8.0mph /  12.9km/h 70% 0.00in /  0mm
06:19 60.2 °F /  15.7 °C 50.4 °F /  10.2 °C 29.95in /  1014.1hPa SSW 1.0mph /  1.6km/h 7.0mph /  11.3km/h 70% 0.00in /  0mm
06:24 60.1 °F /  15.6 °C 50.7 °F /  10.4 °C 29.95in /  1014.1hPa SW 1.0mph /  1.6km/h 7.0mph /  11.3km/h 71% 0.00in /  0mm
06:29 60.2 °F /  15.7 °C 50.8 °F /  10.4 °C 29.95in /  1014.1hPa SW 2.0mph /  3.2km/h 7.0mph /  11.3km/h 71% 0.00in /  0mm
06:34 60.3 °F /  15.7 °C 50.9 °F /  10.5 °C 29.95in /  1014.1hPa SSW 2.0mph /  3.2km/h 9.0mph /  14.5km/h 71% 0.00in /  0mm
06:39 60.5 °F /  15.8 °C 50.7 °F /  10.4 °C 29.95in /  1014.1hPa SSW 1.0mph /  1.6km/h 9.0mph /  14.5km/h 70% 0.00in /  0mm
06:44 60.7 °F /  15.9 °C 50.9 °F /  10.5 °C 29.95in /  1014.1hPa SSW 2.0mph /  3.2km/h 9.0mph /  14.5km/h 70% 0.00in /  0mm
06:49 60.9 °F /  16.1 °C 51.1 °F /  10.6 °C 29.95in /  1014.1hPa SSW 2.0mph /  3.2km/h 7.0mph /  11.3km/h 70% 0.00in /  0mm
06:54 61.3 °F /  16.3 °C 51.4 °F /  10.8 °C 29.95in /  1014.1hPa SSW 1.0mph /  1.6km/h 7.0mph /  11.3km/h 70% 0.00in /  0mm
06:59 61.4 °F /  16.3 °C 51.1 °F /  10.6 °C 29.95in /  1014.1hPa Calm   7.0mph /  11.3km/h 69% 0.00in /  0mm
07:04 61.4 °F /  16.3 °C 51.5 °F /  10.8 °C 29.95in /  1014.1hPa SSW 2.0mph /  3.2km/h 6.0mph /  9.7km/h 70% 0.00in /  0mm
07:09 61.4 °F /  16.3 °C 51.5 °F /  10.8 °C 29.95in /  1014.1hPa SSW 1.0mph /  1.6km/h 6.0mph /  9.7km/h 70% 0.00in /  0mm
07:14 61.4 °F /  16.3 °C 51.9 °F /  11.1 °C 29.95in /  1014.1hPa SSW 1.0mph /  1.6km/h 6.0mph /  9.7km/h 71% 0.00in /  0mm
07:19 61.4 °F /  16.3 °C 51.9 °F /  11.1 °C 29.95in /  1014.1hPa SW 2.0mph /  3.2km/h 8.0mph /  12.9km/h 71% 0.00in /  0mm
07:29 61.4 °F /  16.3 °C 52.3 °F /  11.3 °C 29.95in /  1014.1hPa SSW 1.0mph /  1.6km/h 7.0mph /  11.3km/h 72% 0.00in /  0mm
07:35 61.6 °F /  16.4 °C 52.9 °F /  11.6 °C 29.95in /  1014.1hPa Calm   7.0mph /  11.3km/h 73% 0.00in /  0mm
07:44 61.8 °F /  16.6 °C 52.7 °F /  11.5 °C 29.95in /  1014.1hPa SSW 2.0mph /  3.2km/h 8.0mph /  12.9km/h 72% 0.00in /  0mm
07:49 62.0 °F /  16.7 °C 52.9 °F /  11.6 °C 29.95in /  1014.1hPa SW 1.0mph /  1.6km/h 8.0mph /  12.9km/h 72% 0.00in /  0mm
07:54 62.2 °F /  16.8 °C 53.1 °F /  11.7 °C 29.95in /  1014.1hPa SSW 3.0mph /  4.8km/h 10.0mph /  16.1km/h 72% 0.00in /  0mm
07:59 62.4 °F /  16.9 °C 53.6 °F /  12 °C 29.95in /  1014.1hPa SSW 2.0mph /  3.2km/h 10.0mph /  16.1km/h 73% 0.00in /  0mm
08:09 63.2 °F /  17.3 °C 54.8 °F /  12.7 °C 29.96in /  1014.4hPa SW 3.0mph /  4.8km/h 8.0mph /  12.9km/h 74% 0.00in /  0mm
08:14 63.8 °F /  17.7 °C 54.6 °F /  12.6 °C 29.96in /  1014.4hPa SSW 1.0mph /  1.6km/h 9.0mph /  14.5km/h 72% 0.00in /  0mm
08:24 64.8 °F /  18.2 °C 56.0 °F /  13.3 °C 29.95in /  1014.1hPa SW 1.0mph /  1.6km/h 13.0mph /  20.9km/h 73% 0.00in /  0mm
08:29 65.6 °F /  18.7 °C 55.2 °F /  12.9 °C 29.95in /  1014.1hPa SW 5.0mph /  8km/h 9.0mph /  14.5km/h 69% 0.00in /  0mm
08:34 66.0 °F /  18.9 °C 55.5 °F /  13.1 °C 29.95in /  1014.1hPa SSW 2.0mph /  3.2km/h 9.0mph /  14.5km/h 69% 0.00in /  0mm
08:39 66.1 °F /  18.9 °C 55.6 °F /  13.1 °C 29.95in /  1014.1hPa SW 3.0mph /  4.8km/h 9.0mph /  14.5km/h 69% 0.00in /  0mm
08:44 66.4 °F /  19.1 °C 57.1 °F /  13.9 °C 29.95in /  1014.1hPa SW 1.0mph /  1.6km/h 8.0mph /  12.9km/h 72% 0.00in /  0mm
08:49 66.6 °F /  19.2 °C 56.1 °F /  13.4 °C 29.95in /  1014.1hPa South 1.0mph /  1.6km/h 8.0mph /  12.9km/h 69% 0.00in /  0mm
08:54 66.7 °F /  19.3 °C 55.8 °F /  13.2 °C 29.94in /  1013.8hPa South 2.0mph /  3.2km/h 8.0mph /  12.9km/h 68% 0.00in /  0mm
08:59 66.5 °F /  19.2 °C 55.6 °F /  13.1 °C 29.94in /  1013.8hPa SSW 5.0mph /  8km/h 11.0mph /  17.7km/h 68% 0.00in /  0mm
09:09 66.3 °F /  19.1 °C 56.6 °F /  13.7 °C 29.94in /  1013.8hPa SSW 2.0mph /  3.2km/h 14.0mph /  22.5km/h 71% 0.00in /  0mm
09:14 66.5 °F /  19.2 °C 56.8 °F /  13.8 °C 29.94in /  1013.8hPa SW 4.0mph /  6.4km/h 14.0mph /  22.5km/h 71% 0.00in /  0mm
09:19 66.6 °F /  19.2 °C 56.9 °F /  13.8 °C 29.94in /  1013.8hPa SW 1.0mph /  1.6km/h 12.0mph /  19.3km/h 71% 0.00in /  0mm
09:24 66.7 °F /  19.3 °C 56.6 °F /  13.7 °C 29.94in /  1013.8hPa South 3.0mph /  4.8km/h 12.0mph /  19.3km/h 70% 0.00in /  0mm
09:29 66.6 °F /  19.2 °C 56.5 °F /  13.6 °C 29.93in /  1013.4hPa SSW 3.0mph /  4.8km/h 10.0mph /  16.1km/h 70% 0.00in /  0mm
09:34 66.5 °F /  19.2 °C 57.6 °F /  14.2 °C 29.93in /  1013.4hPa SW 1.0mph /  1.6km/h 12.0mph /  19.3km/h 73% 0.00in /  0mm
09:39 66.5 °F /  19.2 °C 57.2 °F /  14 °C 29.93in /  1013.4hPa SSW 4.0mph /  6.4km/h 14.0mph /  22.5km/h 72% 0.00in /  0mm
09:44 66.4 °F /  19.1 °C 57.1 °F /  13.9 °C 29.93in /  1013.4hPa SSW 3.0mph /  4.8km/h 14.0mph /  22.5km/h 72% 0.00in /  0mm
09:49 66.4 °F /  19.1 °C 57.1 °F /  13.9 °C 29.94in /  1013.8hPa Calm   11.0mph /  17.7km/h 72% 0.00in /  0mm
09:54 66.6 °F /  19.2 °C 57.3 °F /  14.1 °C 29.94in /  1013.8hPa SSW 2.0mph /  3.2km/h 10.0mph /  16.1km/h 72% 0.00in /  0mm
09:59 66.7 °F /  19.3 °C 57.4 °F /  14.1 °C 29.93in /  1013.4hPa SW 2.0mph /  3.2km/h 10.0mph /  16.1km/h 72% 0.00in /  0mm
10:04 67.0 °F /  19.4 °C 57.7 °F /  14.3 °C 29.93in /  1013.4hPa South 2.0mph /  3.2km/h 12.0mph /  19.3km/h 72% 0.00in /  0mm
10:09 67.2 °F /  19.6 °C 57.5 °F /  14.2 °C 29.93in /  1013.4hPa SW 2.0mph /  3.2km/h 13.0mph /  20.9km/h 71% 0.00in /  0mm
10:14 67.4 °F /  19.7 °C 56.9 °F /  13.8 °C 29.93in /  1013.4hPa South 2.0mph /  3.2km/h 13.0mph /  20.9km/h 69% 0.00in /  0mm
10:19 67.7 °F /  19.8 °C 58.0 °F /  14.4 °C 29.93in /  1013.4hPa SW 4.0mph /  6.4km/h 11.0mph /  17.7km/h 71% 0.00in /  0mm
10:24 68.9 °F /  20.5 °C 59.1 °F /  15.1 °C 29.93in /  1013.4hPa SSW 3.0mph /  4.8km/h 11.0mph /  17.7km/h 71% 0.00in /  0mm
10:29 70.1 °F /  21.2 °C 59.1 °F /  15.1 °C 29.92in /  1013.1hPa SSW 3.0mph /  4.8km/h 12.0mph /  19.3km/h 68% 0.00in /  0mm
10:34 70.2 °F /  21.2 °C 57.9 °F /  14.4 °C 29.93in /  1013.4hPa SSW 6.0mph /  9.7km/h 14.0mph /  22.5km/h 65% 0.00in /  0mm
10:39 70.0 °F /  21.1 °C 58.6 °F /  14.8 °C 29.93in /  1013.4hPa SSW 2.0mph /  3.2km/h 14.0mph /  22.5km/h 67% 0.00in /  0mm
10:44 70.2 °F /  21.2 °C 59.2 °F /  15.1 °C 29.93in /  1013.4hPa SW 4.0mph /  6.4km/h 13.0mph /  20.9km/h 68% 0.00in /  0mm
10:49 71.0 °F /  21.7 °C 59.9 °F /  15.5 °C 29.92in /  1013.1hPa SSW 1.0mph /  1.6km/h 13.0mph /  20.9km/h 68% 0.00in /  0mm
10:59 73.2 °F /  22.9 °C 59.4 °F /  15.2 °C 29.92in /  1013.1hPa SSW 5.0mph /  8km/h 12.0mph /  19.3km/h 62% 0.00in /  0mm
11:04 73.7 °F /  23.2 °C 59.4 °F /  15.2 °C 29.92in /  1013.1hPa SW 4.0mph /  6.4km/h 11.0mph /  17.7km/h 61% 0.00in /  0mm
11:09 73.1 °F /  22.8 °C 57.9 °F /  14.4 °C 29.92in /  1013.1hPa SSW 4.0mph /  6.4km/h 13.0mph /  20.9km/h 59% 0.00in /  0mm
11:19 72.2 °F /  22.3 °C 58.5 °F /  14.7 °C 29.91in /  1012.8hPa SSW 2.0mph /  3.2km/h 18.0mph /  29km/h 62% 0.00in /  0mm
11:24 72.6 °F /  22.6 °C 58.4 °F /  14.7 °C 29.92in /  1013.1hPa SSW 4.0mph /  6.4km/h 15.0mph /  24.1km/h 61% 0.00in /  0mm
11:29 72.4 °F /  22.4 °C 57.7 °F /  14.3 °C 29.91in /  1012.8hPa South 5.0mph /  8km/h 13.0mph /  20.9km/h 60% 0.00in /  0mm
11:34 72.6 °F /  22.6 °C 59.7 °F /  15.4 °C 29.91in /  1012.8hPa SW 2.0mph /  3.2km/h 13.0mph /  20.9km/h 64% 0.00in /  0mm
11:39 72.7 °F /  22.6 °C 58.9 °F /  14.9 °C 29.91in /  1012.8hPa SSW 5.0mph /  8km/h 12.0mph /  19.3km/h 62% 0.00in /  0mm
11:44 72.5 °F /  22.5 °C 58.3 °F /  14.6 °C 29.91in /  1012.8hPa SW 6.0mph /  9.7km/h 13.0mph /  20.9km/h 61% 0.00in /  0mm
11:49 73.3 °F /  22.9 °C 58.6 °F /  14.8 °C 29.91in /  1012.8hPa SSW 4.0mph /  6.4km/h 13.0mph /  20.9km/h 60% 0.00in /  0mm
11:54 73.5 °F /  23.1 °C 59.7 °F /  15.4 °C 29.91in /  1012.8hPa SW 5.0mph /  8km/h 13.0mph /  20.9km/h 62% 0.00in /  0mm
11:59 74.4 °F /  23.6 °C 61.0 °F /  16.1 °C 29.90in /  1012.4hPa SW 1.0mph /  1.6km/h 13.0mph /  20.9km/h 63% 0.00in /  0mm
12:04 75.0 °F /  23.9 °C 59.2 °F /  15.1 °C 29.90in /  1012.4hPa SSW 7.0mph /  11.3km/h 13.0mph /  20.9km/h 58% 0.00in /  0mm
12:09 75.2 °F /  24 °C 58.4 °F /  14.7 °C 29.90in /  1012.4hPa SSW 9.0mph /  14.5km/h 16.0mph /  25.7km/h 56% 0.00in /  0mm
12:14 75.5 °F /  24.2 °C 59.2 °F /  15.1 °C 29.90in /  1012.4hPa SW 5.0mph /  8km/h 16.0mph /  25.7km/h 57% 0.00in /  0mm
12:19 75.5 °F /  24.2 °C 59.2 °F /  15.1 °C 29.90in /  1012.4hPa SW 7.0mph /  11.3km/h 19.0mph /  30.6km/h 57% 0.00in /  0mm
12:24 75.3 °F /  24.1 °C 58.0 °F /  14.4 °C 29.90in /  1012.4hPa SW 8.0mph /  12.9km/h 19.0mph /  30.6km/h 55% 0.00in /  0mm
12:29 74.8 °F /  23.8 °C 59.5 °F /  15.3 °C 29.89in /  1012.1hPa SW 5.0mph /  8km/h 16.0mph /  25.7km/h 59% 0.00in /  0mm
12:34 75.1 °F /  23.9 °C 58.8 °F /  14.9 °C 29.89in /  1012.1hPa SSW 4.0mph /  6.4km/h 15.0mph /  24.1km/h 57% 0.00in /  0mm
12:39 75.3 °F /  24.1 °C 58.0 °F /  14.4 °C 29.89in /  1012.1hPa SSW 7.0mph /  11.3km/h 16.0mph /  25.7km/h 55% 0.00in /  0mm
12:44 75.5 °F /  24.2 °C 59.2 °F /  15.1 °C 29.89in /  1012.1hPa SSW 6.0mph /  9.7km/h 16.0mph /  25.7km/h 57% 0.00in /  0mm
12:49 75.7 °F /  24.3 °C 59.9 °F /  15.5 °C 29.88in /  1011.7hPa SSW 5.0mph /  8km/h 17.0mph /  27.4km/h 58% 0.00in /  0mm
12:54 75.8 °F /  24.3 °C 56.9 °F /  13.8 °C 29.88in /  1011.7hPa SW 6.0mph /  9.7km/h 17.0mph /  27.4km/h 52% 0.00in /  0mm
12:59 75.9 °F /  24.4 °C 58.1 °F /  14.5 °C 29.88in /  1011.7hPa SW 3.0mph /  4.8km/h 13.0mph /  20.9km/h 54% 0.00in /  0mm
13:04 76.2 °F /  24.6 °C 57.3 °F /  14.1 °C 29.88in /  1011.7hPa SW 5.0mph /  8km/h 13.0mph /  20.9km/h 52% 0.00in /  0mm
13:09 76.3 °F /  24.6 °C 59.0 °F /  15 °C 29.88in /  1011.7hPa WSW 6.0mph /  9.7km/h 16.0mph /  25.7km/h 55% 0.00in /  0mm
13:14 76.1 °F /  24.5 °C 57.7 °F /  14.3 °C 29.87in /  1011.4hPa SW 6.0mph /  9.7km/h 17.0mph /  27.4km/h 53% 0.00in /  0mm
13:19 76.4 °F /  24.7 °C 59.6 °F /  15.3 °C 29.87in /  1011.4hPa SW 4.0mph /  6.4km/h 17.0mph /  27.4km/h 56% 0.00in /  0mm
13:24 76.2 °F /  24.6 °C 57.8 °F /  14.3 °C 29.86in /  1011.1hPa SSW 8.0mph /  12.9km/h 15.0mph /  24.1km/h 53% 0.00in /  0mm
13:29 75.8 °F /  24.3 °C 56.9 °F /  13.8 °C 29.86in /  1011.1hPa SW 9.0mph /  14.5km/h 26.0mph /  41.8km/h 52% 0.00in /  0mm
13:34 75.8 °F /  24.3 °C 58.5 °F /  14.7 °C 29.86in /  1011.1hPa SSW 7.0mph /  11.3km/h 26.0mph /  41.8km/h 55% 0.00in /  0mm
13:39 76.1 °F /  24.5 °C 57.2 °F /  14 °C 29.86in /  1011.1hPa South 8.0mph /  12.9km/h 18.0mph /  29km/h 52% 0.00in /  0mm
13:44 75.8 °F /  24.3 °C 58.0 °F /  14.4 °C 29.85in /  1010.7hPa SSW 9.0mph /  14.5km/h 25.0mph /  40.2km/h 54% 0.00in /  0mm
13:49 76.0 °F /  24.4 °C 57.7 °F /  14.3 °C 29.85in /  1010.7hPa SW 7.0mph /  11.3km/h 25.0mph /  40.2km/h 53% 0.00in /  0mm
13:54 76.2 °F /  24.6 °C 56.2 °F /  13.4 °C 29.86in /  1011.1hPa SW 9.0mph /  14.5km/h 25.0mph /  40.2km/h 50% 0.00in /  0mm
13:59 76.3 °F /  24.6 °C 57.4 °F /  14.1 °C 29.85in /  1010.7hPa SSW 10.0mph /  16.1km/h 26.0mph /  41.8km/h 52% 0.00in /  0mm
14:04 76.1 °F /  24.5 °C 56.7 °F /  13.7 °C 29.86in /  1011.1hPa SSW 10.0mph /  16.1km/h 26.0mph /  41.8km/h 51% 0.00in /  0mm
14:09 76.3 °F /  24.6 °C 55.8 °F /  13.2 °C 29.85in /  1010.7hPa SW 11.0mph /  17.7km/h 24.0mph /  38.6km/h 49% 0.00in /  0mm
14:14 76.3 °F /  24.6 °C 57.4 °F /  14.1 °C 29.85in /  1010.7hPa SW 7.0mph /  11.3km/h 20.0mph /  32.2km/h 52% 0.00in /  0mm
14:19 76.2 °F /  24.6 °C 56.8 °F /  13.8 °C 29.85in /  1010.7hPa SSW 9.0mph /  14.5km/h 22.0mph /  35.4km/h 51% 0.00in /  0mm
14:24 76.3 °F /  24.6 °C 56.9 °F /  13.8 °C 29.84in /  1010.4hPa SW 6.0mph /  9.7km/h 22.0mph /  35.4km/h 51% 0.00in /  0mm
14:29 76.4 °F /  24.7 °C 55.9 °F /  13.3 °C 29.84in /  1010.4hPa SSW 7.0mph /  11.3km/h 19.0mph /  30.6km/h 49% 0.00in /  0mm
14:34 76.7 °F /  24.8 °C 57.2 °F /  14 °C 29.84in /  1010.4hPa SSW 8.0mph /  12.9km/h 18.0mph /  29km/h 51% 0.00in /  0mm
14:39 76.8 °F /  24.9 °C 56.8 °F /  13.8 °C 29.83in /  1010hPa SW 8.0mph /  12.9km/h 20.0mph /  32.2km/h 50% 0.00in /  0mm
14:44 76.9 °F /  24.9 °C 55.7 °F /  13.2 °C 29.83in /  1010hPa SSW 9.0mph /  14.5km/h 20.0mph /  32.2km/h 48% 0.00in /  0mm
14:49 76.9 °F /  24.9 °C 58.5 °F /  14.7 °C 29.83in /  1010hPa SSW 8.0mph /  12.9km/h 17.0mph /  27.4km/h 53% 0.00in /  0mm
14:54 76.7 °F /  24.8 °C 57.2 °F /  14 °C 29.82in /  1009.7hPa SW 10.0mph /  16.1km/h 21.0mph /  33.8km/h 51% 0.00in /  0mm
14:59 77.0 °F /  25 °C 58.6 °F /  14.8 °C 29.83in /  1010hPa SSW 4.0mph /  6.4km/h 21.0mph /  33.8km/h 53% 0.00in /  0mm
15:04 77.5 °F /  25.3 °C 58.0 °F /  14.4 °C 29.83in /  1010hPa SW 8.0mph /  12.9km/h 19.0mph /  30.6km/h 51% 0.00in /  0mm
15:09 77.8 °F /  25.4 °C 58.8 °F /  14.9 °C 29.82in /  1009.7hPa SW 7.0mph /  11.3km/h 20.0mph /  32.2km/h 52% 0.00in /  0mm
15:14 77.7 °F /  25.4 °C 57.6 °F /  14.2 °C 29.82in /  1009.7hPa SSW 7.0mph /  11.3km/h 21.0mph /  33.8km/h 50% 0.00in /  0mm
15:19 76.6 °F /  24.8 °C 58.2 °F /  14.6 °C 29.82in /  1009.7hPa SSW 4.0mph /  6.4km/h 21.0mph /  33.8km/h 53% 0.00in /  0mm
15:24 75.7 °F /  24.3 °C 57.9 °F /  14.4 °C 29.82in /  1009.7hPa SSW 7.0mph /  11.3km/h 20.0mph /  32.2km/h 54% 0.00in /  0mm
15:29 75.8 °F /  24.3 °C 59.0 °F /  15 °C 29.82in /  1009.7hPa SW 4.0mph /  6.4km/h 20.0mph /  32.2km/h 56% 0.00in /  0mm
15:34 76.1 °F /  24.5 °C 59.3 °F /  15.2 °C 29.82in /  1009.7hPa SW 2.0mph /  3.2km/h 16.0mph /  25.7km/h 56% 0.00in /  0mm
15:39 75.7 °F /  24.3 °C 58.9 °F /  14.9 °C 29.83in /  1010hPa SSW 2.0mph /  3.2km/h 13.0mph /  20.9km/h 56% 0.00in /  0mm
15:44 75.5 °F /  24.2 °C 58.7 °F /  14.8 °C 29.82in /  1009.7hPa SSW 4.0mph /  6.4km/h 11.0mph /  17.7km/h 56% 0.00in /  0mm
15:49 75.1 °F /  23.9 °C 58.4 °F /  14.7 °C 29.82in /  1009.7hPa SSW 3.0mph /  4.8km/h 18.0mph /  29km/h 56% 0.00in /  0mm
15:54 74.8 °F /  23.8 °C 57.6 °F /  14.2 °C 29.82in /  1009.7hPa SSW 4.0mph /  6.4km/h 20.0mph /  32.2km/h 55% 0.00in /  0mm
15:59 74.5 °F /  23.6 °C 56.8 °F /  13.8 °C 29.82in /  1009.7hPa SW 8.0mph /  12.9km/h 20.0mph /  32.2km/h 54% 0.00in /  0mm
16:04 74.1 °F /  23.4 °C 57.9 °F /  14.4 °C 29.82in /  1009.7hPa SW 7.0mph /  11.3km/h 14.0mph /  22.5km/h 57% 0.00in /  0mm
16:09 73.8 °F /  23.2 °C 57.6 °F /  14.2 °C 29.82in /  1009.7hPa SW 3.0mph /  4.8km/h 13.0mph /  20.9km/h 57% 0.00in /  0mm
16:14 73.8 °F /  23.2 °C 57.6 °F /  14.2 °C 29.82in /  1009.7hPa SSW 5.0mph /  8km/h 13.0mph /  20.9km/h 57% 0.00in /  0mm
16:19 73.6 °F /  23.1 °C 57.4 °F /  14.1 °C 29.82in /  1009.7hPa SW 5.0mph /  8km/h 15.0mph /  24.1km/h 57% 0.00in /  0mm
16:24 73.0 °F /  22.8 °C 55.9 °F /  13.3 °C 29.82in /  1009.7hPa SW 4.0mph /  6.4km/h 15.0mph /  24.1km/h 55% 0.00in /  0mm
16:29 72.4 °F /  22.4 °C 55.8 °F /  13.2 °C 29.82in /  1009.7hPa SSW 5.0mph /  8km/h 18.0mph /  29km/h 56% 0.00in /  0mm
16:34 72.0 °F /  22.2 °C 55.5 °F /  13.1 °C 29.82in /  1009.7hPa SSW 7.0mph /  11.3km/h 18.0mph /  29km/h 56% 0.00in /  0mm
16:39 71.8 °F /  22.1 °C 55.8 °F /  13.2 °C 29.82in /  1009.7hPa SW 6.0mph /  9.7km/h 18.0mph /  29km/h 57% 0.00in /  0mm
16:44 71.7 °F /  22.1 °C 55.7 °F /  13.2 °C 29.81in /  1009.4hPa SW 5.0mph /  8km/h 16.0mph /  25.7km/h 57% 0.00in /  0mm
16:49 71.8 °F /  22.1 °C 55.8 °F /  13.2 °C 29.81in /  1009.4hPa SSW 5.0mph /  8km/h 16.0mph /  25.7km/h 57% 0.00in /  0mm
16:54 71.9 °F /  22.2 °C 55.9 °F /  13.3 °C 29.81in /  1009.4hPa SSW 8.0mph /  12.9km/h 22.0mph /  35.4km/h 57% 0.00in /  0mm
16:59 72.0 °F /  22.2 °C 56.4 °F /  13.6 °C 29.81in /  1009.4hPa SSW 5.0mph /  8km/h 22.0mph /  35.4km/h 58% 0.00in /  0mm
17:04 72.0 °F /  22.2 °C 56.0 °F /  13.3 °C 29.80in /  1009hPa SW 3.0mph /  4.8km/h 13.0mph /  20.9km/h 57% 0.00in /  0mm
17:09 72.1 °F /  22.3 °C 56.5 °F /  13.6 °C 29.81in /  1009.4hPa SW 3.0mph /  4.8km/h 13.0mph /  20.9km/h 58% 0.00in /  0mm
17:14 72.0 °F /  22.2 °C 56.4 °F /  13.6 °C 29.81in /  1009.4hPa SW 2.0mph /  3.2km/h 19.0mph /  30.6km/h 58% 0.00in /  0mm
17:19 72.0 °F /  22.2 °C 56.4 °F /  13.6 °C 29.81in /  1009.4hPa SSW 4.0mph /  6.4km/h 19.0mph /  30.6km/h 58% 0.00in /  0mm
17:24 71.8 °F /  22.1 °C 56.2 °F /  13.4 °C 29.81in /  1009.4hPa SSW 4.0mph /  6.4km/h 15.0mph /  24.1km/h 58% 0.00in /  0mm
17:35 71.3 °F /  21.8 °C 57.2 °F /  14 °C 29.81in /  1009.4hPa SW 3.0mph /  4.8km/h 12.0mph /  19.3km/h 61% 0.00in /  0mm
17:40 71.3 °F /  21.8 °C 56.2 °F /  13.4 °C 29.81in /  1009.4hPa SW 5.0mph /  8km/h 13.0mph /  20.9km/h 59% 0.00in /  0mm
17:45 71.3 °F /  21.8 °C 56.2 °F /  13.4 °C 29.80in /  1009hPa SSW 2.0mph /  3.2km/h 13.0mph /  20.9km/h 59% 0.00in /  0mm
17:55 71.7 °F /  22.1 °C 56.6 °F /  13.7 °C 29.80in /  1009hPa SSW 2.0mph /  3.2km/h 13.0mph /  20.9km/h 59% 0.00in /  0mm
18:00 71.8 °F /  22.1 °C 56.2 °F /  13.4 °C 29.80in /  1009hPa South 3.0mph /  4.8km/h 12.0mph /  19.3km/h 58% 0.00in /  0mm
18:05 72.1 °F /  22.3 °C 56.5 °F /  13.6 °C 29.80in /  1009hPa South 1.0mph /  1.6km/h 12.0mph /  19.3km/h 58% 0.00in /  0mm
18:10 72.4 °F /  22.4 °C 56.8 °F /  13.8 °C 29.80in /  1009hPa South 1.0mph /  1.6km/h 10.0mph /  16.1km/h 58% 0.00in /  0mm
18:15 72.7 °F /  22.6 °C 57.1 °F /  13.9 °C 29.80in /  1009hPa SW 1.0mph /  1.6km/h 10.0mph /  16.1km/h 58% 0.00in /  0mm
18:20 73.0 °F /  22.8 °C 57.4 °F /  14.1 °C 29.79in /  1008.7hPa SSE 1.0mph /  1.6km/h 9.0mph /  14.5km/h 58% 0.00in /  0mm
18:25 73.0 °F /  22.8 °C 56.4 °F /  13.6 °C 29.80in /  1009hPa SSW 2.0mph /  3.2km/h 11.0mph /  17.7km/h 56% 0.00in /  0mm
18:30 72.7 °F /  22.6 °C 56.1 °F /  13.4 °C 29.79in /  1008.7hPa SSW 2.0mph /  3.2km/h 11.0mph /  17.7km/h 56% 0.00in /  0mm
18:40 72.0 °F /  22.2 °C 56.4 °F /  13.6 °C 29.78in /  1008.4hPa Calm   10.0mph /  16.1km/h 58% 0.00in /  0mm
18:50 70.8 °F /  21.6 °C 55.8 °F /  13.2 °C 29.78in /  1008.4hPa SSW 2.0mph /  3.2km/h 8.0mph /  12.9km/h 59% 0.00in /  0mm
18:55 70.4 °F /  21.3 °C 55.9 °F /  13.3 °C 29.78in /  1008.4hPa SSW 1.0mph /  1.6km/h 8.0mph /  12.9km/h 60% 0.00in /  0mm
19:00 70.1 °F /  21.2 °C 55.6 °F /  13.1 °C 29.78in /  1008.4hPa SW 3.0mph /  4.8km/h 8.0mph /  12.9km/h 60% 0.00in /  0mm
19:05 69.8 °F /  21 °C 55.8 °F /  13.2 °C 29.78in /  1008.4hPa SSW 3.0mph /  4.8km/h 12.0mph /  19.3km/h 61% 0.00in /  0mm
19:10 69.6 °F /  20.9 °C 56.0 °F /  13.3 °C 29.78in /  1008.4hPa SSW 1.0mph /  1.6km/h 12.0mph /  19.3km/h 62% 0.00in /  0mm
19:20 69.6 °F /  20.9 °C 56.0 °F /  13.3 °C 29.78in /  1008.4hPa SSW 2.0mph /  3.2km/h 10.0mph /  16.1km/h 62% 0.00in /  0mm
19:25 69.8 °F /  21 °C 55.8 °F /  13.2 °C 29.78in /  1008.4hPa Calm   10.0mph /  16.1km/h 61% 0.00in /  0mm
19:30 69.9 °F /  21.1 °C 55.9 °F /  13.3 °C 29.78in /  1008.4hPa Calm   9.0mph /  14.5km/h 61% 0.00in /  0mm
19:40 69.9 °F /  21.1 °C 56.3 °F /  13.5 °C 29.78in /  1008.4hPa SSW 2.0mph /  3.2km/h 7.0mph /  11.3km/h 62% 0.00in /  0mm
19:45 69.8 °F /  21 °C 55.8 °F /  13.2 °C 29.78in /  1008.4hPa SW 1.0mph /  1.6km/h 7.0mph /  11.3km/h 61% 0.00in /  0mm
19:50 69.9 °F /  21.1 °C 56.3 °F /  13.5 °C 29.78in /  1008.4hPa SSW 2.0mph /  3.2km/h 12.0mph /  19.3km/h 62% 0.00in /  0mm
19:55 69.9 °F /  21.1 °C 56.3 °F /  13.5 °C 29.79in /  1008.7hPa SW 1.0mph /  1.6km/h 12.0mph /  19.3km/h 62% 0.00in /  0mm
20:05 69.5 °F /  20.8 °C 56.4 °F /  13.6 °C 29.78in /  1008.4hPa South 3.0mph /  4.8km/h 8.0mph /  12.9km/h 63% 0.00in /  0mm
20:10 69.6 °F /  20.9 °C 56.0 °F /  13.3 °C 29.79in /  1008.7hPa SSW 4.0mph /  6.4km/h 14.0mph /  22.5km/h 62% 0.00in /  0mm
20:15 69.7 °F /  20.9 °C 56.1 °F /  13.4 °C 29.78in /  1008.4hPa South 3.0mph /  4.8km/h 14.0mph /  22.5km/h 62% 0.00in /  0mm
20:25 70.0 °F /  21.1 °C 55.9 °F /  13.3 °C 29.79in /  1008.7hPa SSW 5.0mph /  8km/h 14.0mph /  22.5km/h 61% 0.00in /  0mm
20:30 70.0 °F /  21.1 °C 55.9 °F /  13.3 °C 29.79in /  1008.7hPa SW 1.0mph /  1.6km/h 14.0mph /  22.5km/h 61% 0.00in /  0mm
20:35 70.0 °F /  21.1 °C 55.5 °F /  13.1 °C 29.80in /  1009hPa SSW 5.0mph /  8km/h 10.0mph /  16.1km/h 60% 0.00in /  0mm
20:45 69.8 °F /  21 °C 55.8 °F /  13.2 °C 29.79in /  1008.7hPa SSW 3.0mph /  4.8km/h 13.0mph /  20.9km/h 61% 0.00in /  0mm
20:50 69.7 °F /  20.9 °C 55.7 °F /  13.2 °C 29.79in /  1008.7hPa SSW 2.0mph /  3.2km/h 13.0mph /  20.9km/h 61% 0.00in /  0mm
20:55 69.6 °F /  20.9 °C 55.6 °F /  13.1 °C 29.78in /  1008.4hPa SSW 5.0mph /  8km/h 15.0mph /  24.1km/h 61% 0.00in /  0mm
21:00 69.6 °F /  20.9 °C 56.0 °F /  13.3 °C 29.78in /  1008.4hPa SSW 2.0mph /  3.2km/h 15.0mph /  24.1km/h 62% 0.00in /  0mm
21:05 69.6 °F /  20.9 °C 55.6 °F /  13.1 °C 29.77in /  1008hPa SSW 6.0mph /  9.7km/h 14.0mph /  22.5km/h 61% 0.00in /  0mm
21:10 69.7 °F /  20.9 °C 55.7 °F /  13.2 °C 29.77in /  1008hPa SSW 4.0mph /  6.4km/h 16.0mph /  25.7km/h 61% 0.00in /  0mm
21:15 69.7 °F /  20.9 °C 55.7 °F /  13.2 °C 29.77in /  1008hPa SSW 3.0mph /  4.8km/h 16.0mph /  25.7km/h 61% 0.00in /  0mm
21:20 69.7 °F /  20.9 °C 55.7 °F /  13.2 °C 29.77in /  1008hPa SSW 6.0mph /  9.7km/h 14.0mph /  22.5km/h 61% 0.00in /  0mm
21:25 69.7 °F /  20.9 °C 56.1 °F /  13.4 °C 29.77in /  1008hPa SSW 4.0mph /  6.4km/h 14.0mph /  22.5km/h 62% 0.00in /  0mm
21:30 69.5 °F /  20.8 °C 55.9 °F /  13.3 °C 29.77in /  1008hPa SSW 7.0mph /  11.3km/h 20.0mph /  32.2km/h 62% 0.00in /  0mm
21:45 69.4 °F /  20.8 °C 55.8 °F /  13.2 °C 29.77in /  1008hPa SSW 4.0mph /  6.4km/h 16.0mph /  25.7km/h 62% 0.00in /  0mm
21:50 69.2 °F /  20.7 °C 55.6 °F /  13.1 °C 29.76in /  1007.7hPa SSW 4.0mph /  6.4km/h 16.0mph /  25.7km/h 62% 0.00in /  0mm
22:00 69.2 °F /  20.7 °C 56.1 °F /  13.4 °C 29.76in /  1007.7hPa SSW 6.0mph /  9.7km/h 16.0mph /  25.7km/h 63% 0.00in /  0mm
22:10 69.2 °F /  20.7 °C 56.1 °F /  13.4 °C 29.76in /  1007.7hPa SSW 7.0mph /  11.3km/h 15.0mph /  24.1km/h 63% 0.00in /  0mm
22:15 69.2 °F /  20.7 °C 56.1 °F /  13.4 °C 29.76in /  1007.7hPa SSW 8.0mph /  12.9km/h 21.0mph /  33.8km/h 63% 0.00in /  0mm
22:20 69.2 °F /  20.7 °C 56.5 °F /  13.6 °C 29.75in /  1007.3hPa South 1.0mph /  1.6km/h 21.0mph /  33.8km/h 64% 0.00in /  0mm
22:25 69.4 °F /  20.8 °C 56.7 °F /  13.7 °C 29.76in /  1007.7hPa SW 5.0mph /  8km/h 16.0mph /  25.7km/h 64% 0.00in /  0mm
22:30 69.3 °F /  20.7 °C 56.6 °F /  13.7 °C 29.76in /  1007.7hPa SSW 5.0mph /  8km/h 15.0mph /  24.1km/h 64% 0.00in /  0mm
22:35 69.3 °F /  20.7 °C 56.6 °F /  13.7 °C 29.76in /  1007.7hPa SSW 6.0mph /  9.7km/h 15.0mph /  24.1km/h 64% 0.00in /  0mm
22:40 69.2 °F /  20.7 °C 56.5 °F /  13.6 °C 29.76in /  1007.7hPa SSW 9.0mph /  14.5km/h 21.0mph /  33.8km/h 64% 0.00in /  0mm
22:45 69.3 °F /  20.7 °C 56.6 °F /  13.7 °C 29.76in /  1007.7hPa SSW 7.0mph /  11.3km/h 21.0mph /  33.8km/h 64% 0.00in /  0mm
22:50 69.4 °F /  20.8 °C 56.7 °F /  13.7 °C 29.76in /  1007.7hPa SW 11.0mph /  17.7km/h 23.0mph /  37km/h 64% 0.00in /  0mm
22:55 69.5 °F /  20.8 °C 57.2 °F /  14 °C 29.76in /  1007.7hPa SW 6.0mph /  9.7km/h 23.0mph /  37km/h 65% 0.00in /  0mm
23:00 69.4 °F /  20.8 °C 57.1 °F /  13.9 °C 29.76in /  1007.7hPa SSW 10.0mph /  16.1km/h 26.0mph /  41.8km/h 65% 0.00in /  0mm
23:05 69.4 °F /  20.8 °C 57.1 °F /  13.9 °C 29.75in /  1007.3hPa SW 10.0mph /  16.1km/h 26.0mph /  41.8km/h 65% 0.00in /  0mm
23:10 69.3 °F /  20.7 °C 57.5 °F /  14.2 °C 29.75in /  1007.3hPa SSW 7.0mph /  11.3km/h 19.0mph /  30.6km/h 66% 0.00in /  0mm
23:15 69.2 °F /  20.7 °C 57.4 °F /  14.1 °C 29.75in /  1007.3hPa SW 9.0mph /  14.5km/h 23.0mph /  37km/h 66% 0.00in /  0mm
23:20 69.3 °F /  20.7 °C 57.5 °F /  14.2 °C 29.75in /  1007.3hPa SSW 10.0mph /  16.1km/h 23.0mph /  37km/h 66% 0.00in /  0mm
23:25 69.2 °F /  20.7 °C 57.8 °F /  14.3 °C 29.75in /  1007.3hPa SSW 4.0mph /  6.4km/h 22.0mph /  35.4km/h 67% 0.00in /  0mm
23:30 68.9 °F /  20.5 °C 57.5 °F /  14.2 °C 29.75in /  1007.3hPa SW 6.0mph /  9.7km/h 17.0mph /  27.4km/h 67% 0.00in /  0mm
23:35 68.8 °F /  20.4 °C 57.8 °F /  14.3 °C 29.74in /  1007hPa SSW 7.0mph /  11.3km/h 23.0mph /  37km/h 68% 0.00in /  0mm
23:40 68.7 °F /  20.4 °C 57.7 °F /  14.3 °C 29.74in /  1007hPa SW 6.0mph /  9.7km/h 23.0mph /  37km/h 68% 0.00in /  0mm
23:45 68.7 °F /  20.4 °C 57.7 °F /  14.3 °C 29.74in /  1007hPa SW 7.0mph /  11.3km/h 19.0mph /  30.6km/h 68% 0.00in /  0mm
23:50 68.7 °F /  20.4 °C 57.7 °F /  14.3 °C 29.73in /  1006.7hPa SW 7.0mph /  11.3km/h 21.0mph /  33.8km/h 68% 0.00in /  0mm
23:55 68.5 °F /  20.3 °C 57.9 °F /  14.4 °C 29.73in /  1006.7hPa SSW 10.0mph /  16.1km/h 21.0mph /  33.8km/h 69% 0.00in /  0mm
Westford Weather
Compliments of Weather Underground

 
 
Current Radar Loop:

Copyright © WestfordWeather.net 2007-2014. All rights reserved.